sensor_id;sensor_type;location;lat;lon;timestamp;temperature;humidity
66312;HTU21D;53114;51.138;6.008;2022-07-21T00:01:48;19.86;118.99
66312;HTU21D;53114;51.138;6.008;2022-07-21T00:04:15;19.84;118.99
66312;HTU21D;53114;51.138;6.008;2022-07-21T00:06:42;19.85;118.99
66312;HTU21D;53114;51.138;6.008;2022-07-21T00:09:09;19.84;118.99
66312;HTU21D;53114;51.138;6.008;2022-07-21T00:11:36;19.88;118.99
66312;HTU21D;53114;51.138;6.008;2022-07-21T00:14:02;19.95;118.99
66312;HTU21D;53114;51.138;6.008;2022-07-21T00:16:28;20.01;118.99
66312;HTU21D;53114;51.138;6.008;2022-07-21T00:18:55;20.00;118.99
66312;HTU21D;53114;51.138;6.008;2022-07-21T00:21:20;19.95;118.99
66312;HTU21D;53114;51.138;6.008;2022-07-21T00:23:46;19.94;118.99
66312;HTU21D;53114;51.138;6.008;2022-07-21T00:26:12;19.91;118.99
66312;HTU21D;53114;51.138;6.008;2022-07-21T00:28:38;19.89;118.99
66312;HTU21D;53114;51.138;6.008;2022-07-21T00:31:04;19.86;118.99
66312;HTU21D;53114;51.138;6.008;2022-07-21T00:33:30;19.84;118.99
66312;HTU21D;53114;51.138;6.008;2022-07-21T00:35:56;19.82;118.99
66312;HTU21D;53114;51.138;6.008;2022-07-21T00:38:21;19.84;118.99
66312;HTU21D;53114;51.138;6.008;2022-07-21T00:40:47;19.82;118.99
66312;HTU21D;53114;51.138;6.008;2022-07-21T00:43:13;19.81;118.99
66312;HTU21D;53114;51.138;6.008;2022-07-21T00:45:39;19.83;118.99
66312;HTU21D;53114;51.138;6.008;2022-07-21T00:48:05;19.85;118.99
66312;HTU21D;53114;51.138;6.008;2022-07-21T00:50:33;19.92;118.99
66312;HTU21D;53114;51.138;6.008;2022-07-21T00:52:59;20.01;118.99
66312;HTU21D;53114;51.138;6.008;2022-07-21T00:55:25;20.10;118.99
66312;HTU21D;53114;51.138;6.008;2022-07-21T00:57:52;20.20;118.99
66312;HTU21D;53114;51.138;6.008;2022-07-21T01:00:22;20.27;118.99
66312;HTU21D;53114;51.138;6.008;2022-07-21T01:02:49;20.30;118.99
66312;HTU21D;53114;51.138;6.008;2022-07-21T01:05:15;20.31;118.99
66312;HTU21D;53114;51.138;6.008;2022-07-21T01:07:44;20.28;118.99
66312;HTU21D;53114;51.138;6.008;2022-07-21T01:10:12;20.27;118.99
66312;HTU21D;53114;51.138;6.008;2022-07-21T01:12:40;20.27;118.99
66312;HTU21D;53114;51.138;6.008;2022-07-21T01:15:07;20.21;118.99
66312;HTU21D;53114;51.138;6.008;2022-07-21T01:17:34;20.06;118.99
66312;HTU21D;53114;51.138;6.008;2022-07-21T01:20:09;19.90;118.99
66312;HTU21D;53114;51.138;6.008;2022-07-21T01:22:38;19.79;118.99
66312;HTU21D;53114;51.138;6.008;2022-07-21T01:25:05;19.73;118.99
66312;HTU21D;53114;51.138;6.008;2022-07-21T01:27:31;19.70;118.99
66312;HTU21D;53114;51.138;6.008;2022-07-21T01:29:58;19.68;118.99
66312;HTU21D;53114;51.138;6.008;2022-07-21T01:32:24;19.69;118.99
66312;HTU21D;53114;51.138;6.008;2022-07-21T01:34:50;19.71;118.99
66312;HTU21D;53114;51.138;6.008;2022-07-21T01:37:21;19.82;118.99
66312;HTU21D;53114;51.138;6.008;2022-07-21T01:39:51;19.87;118.99
66312;HTU21D;53114;51.138;6.008;2022-07-21T01:42:36;19.95;118.99
66312;HTU21D;53114;51.138;6.008;2022-07-21T01:45:03;19.97;118.99
66312;HTU21D;53114;51.138;6.008;2022-07-21T01:47:29;19.97;118.99
66312;HTU21D;53114;51.138;6.008;2022-07-21T01:49:56;19.99;118.99
66312;HTU21D;53114;51.138;6.008;2022-07-21T01:52:22;20.04;118.99
66312;HTU21D;53114;51.138;6.008;2022-07-21T01:54:48;20.10;118.99
66312;HTU21D;53114;51.138;6.008;2022-07-21T01:57:14;20.12;118.99
66312;HTU21D;53114;51.138;6.008;2022-07-21T01:59:40;20.09;118.99
66312;HTU21D;53114;51.138;6.008;2022-07-21T02:02:06;20.07;118.99
66312;HTU21D;53114;51.138;6.008;2022-07-21T02:04:32;20.09;118.99
66312;HTU21D;53114;51.138;6.008;2022-07-21T02:07:01;20.11;118.99
66312;HTU21D;53114;51.138;6.008;2022-07-21T02:09:27;20.15;118.99
66312;HTU21D;53114;51.138;6.008;2022-07-21T02:11:53;20.17;118.99
66312;HTU21D;53114;51.138;6.008;2022-07-21T02:14:19;20.20;118.99
66312;HTU21D;53114;51.138;6.008;2022-07-21T02:16:45;20.19;118.99
66312;HTU21D;53114;51.138;6.008;2022-07-21T02:19:11;20.20;118.99
66312;HTU21D;53114;51.138;6.008;2022-07-21T02:21:37;20.22;118.99
66312;HTU21D;53114;51.138;6.008;2022-07-21T02:24:03;20.25;118.99
66312;HTU21D;53114;51.138;6.008;2022-07-21T02:26:29;20.26;118.99
66312;HTU21D;53114;51.138;6.008;2022-07-21T02:28:55;20.29;118.99
66312;HTU21D;53114;51.138;6.008;2022-07-21T02:31:21;20.32;118.99
66312;HTU21D;53114;51.138;6.008;2022-07-21T02:33:47;20.36;118.99
66312;HTU21D;53114;51.138;6.008;2022-07-21T02:36:13;20.40;118.99
66312;HTU21D;53114;51.138;6.008;2022-07-21T02:38:39;20.43;118.99
66312;HTU21D;53114;51.138;6.008;2022-07-21T02:41:05;20.43;118.99
66312;HTU21D;53114;51.138;6.008;2022-07-21T02:43:31;20.44;118.99
66312;HTU21D;53114;51.138;6.008;2022-07-21T02:45:56;20.44;118.99
66312;HTU21D;53114;51.138;6.008;2022-07-21T02:48:22;20.43;118.99
66312;HTU21D;53114;51.138;6.008;2022-07-21T02:50:48;20.39;118.99
66312;HTU21D;53114;51.138;6.008;2022-07-21T02:53:19;20.30;118.99
66312;HTU21D;53114;51.138;6.008;2022-07-21T02:55:47;20.21;118.99
66312;HTU21D;53114;51.138;6.008;2022-07-21T02:58:15;20.19;118.99
66312;HTU21D;53114;51.138;6.008;2022-07-21T03:00:48;20.16;118.99
66312;HTU21D;53114;51.138;6.008;2022-07-21T03:03:14;20.17;118.99
66312;HTU21D;53114;51.138;6.008;2022-07-21T03:05:40;20.17;118.99
66312;HTU21D;53114;51.138;6.008;2022-07-21T03:08:08;20.17;118.99
66312;HTU21D;53114;51.138;6.008;2022-07-21T03:10:35;20.16;118.99
66312;HTU21D;53114;51.138;6.008;2022-07-21T03:13:02;20.21;118.99
66312;HTU21D;53114;51.138;6.008;2022-07-21T03:15:29;20.26;118.99
66312;HTU21D;53114;51.138;6.008;2022-07-21T03:17:56;20.29;118.99
66312;HTU21D;53114;51.138;6.008;2022-07-21T03:20:24;20.31;118.99
66312;HTU21D;53114;51.138;6.008;2022-07-21T03:22:50;20.35;118.99
66312;HTU21D;53114;51.138;6.008;2022-07-21T03:25:16;20.37;118.99
66312;HTU21D;53114;51.138;6.008;2022-07-21T03:27:43;20.36;118.99
66312;HTU21D;53114;51.138;6.008;2022-07-21T03:30:09;20.37;118.99
66312;HTU21D;53114;51.138;6.008;2022-07-21T03:32:36;20.39;118.99
66312;HTU21D;53114;51.138;6.008;2022-07-21T03:35:04;20.39;118.99
66312;HTU21D;53114;51.138;6.008;2022-07-21T03:37:30;20.35;118.99
66312;HTU21D;53114;51.138;6.008;2022-07-21T03:39:56;20.31;118.99
66312;HTU21D;53114;51.138;6.008;2022-07-21T03:42:22;20.26;118.99
66312;HTU21D;53114;51.138;6.008;2022-07-21T03:44:48;20.21;118.99
66312;HTU21D;53114;51.138;6.008;2022-07-21T03:47:14;20.17;118.99
66312;HTU21D;53114;51.138;6.008;2022-07-21T03:49:40;20.13;118.99
66312;HTU21D;53114;51.138;6.008;2022-07-21T03:52:06;20.10;118.99
66312;HTU21D;53114;51.138;6.008;2022-07-21T03:54:32;20.04;118.99
66312;HTU21D;53114;51.138;6.008;2022-07-21T03:56:58;20.00;118.99
66312;HTU21D;53114;51.138;6.008;2022-07-21T03:59:23;19.98;118.99
66312;HTU21D;53114;51.138;6.008;2022-07-21T04:01:49;19.97;118.99
66312;HTU21D;53114;51.138;6.008;2022-07-21T04:04:15;19.98;118.99
66312;HTU21D;53114;51.138;6.008;2022-07-21T04:06:41;20.00;118.99
66312;HTU21D;53114;51.138;6.008;2022-07-21T04:09:07;20.02;118.99
66312;HTU21D;53114;51.138;6.008;2022-07-21T04:11:33;20.03;118.99
66312;HTU21D;53114;51.138;6.008;2022-07-21T04:13:58;20.04;118.99
66312;HTU21D;53114;51.138;6.008;2022-07-21T04:16:24;20.05;118.99
66312;HTU21D;53114;51.138;6.008;2022-07-21T04:18:50;20.07;118.99
66312;HTU21D;53114;51.138;6.008;2022-07-21T04:21:16;20.09;118.99
66312;HTU21D;53114;51.138;6.008;2022-07-21T04:23:42;20.06;118.99
66312;HTU21D;53114;51.138;6.008;2022-07-21T04:26:08;20.04;118.99
66312;HTU21D;53114;51.138;6.008;2022-07-21T04:28:33;20.01;118.99
66312;HTU21D;53114;51.138;6.008;2022-07-21T04:30:59;19.98;118.99
66312;HTU21D;53114;51.138;6.008;2022-07-21T04:33:25;19.99;118.99
66312;HTU21D;53114;51.138;6.008;2022-07-21T04:35:51;20.01;118.99
66312;HTU21D;53114;51.138;6.008;2022-07-21T04:38:17;19.99;118.99
66312;HTU21D;53114;51.138;6.008;2022-07-21T04:40:44;20.04;118.99
66312;HTU21D;53114;51.138;6.008;2022-07-21T04:43:10;20.09;118.99
66312;HTU21D;53114;51.138;6.008;2022-07-21T04:45:35;20.11;118.99
66312;HTU21D;53114;51.138;6.008;2022-07-21T04:48:02;20.16;118.99
66312;HTU21D;53114;51.138;6.008;2022-07-21T04:50:28;20.24;118.99
66312;HTU21D;53114;51.138;6.008;2022-07-21T04:52:55;20.30;118.99
66312;HTU21D;53114;51.138;6.008;2022-07-21T04:55:22;20.39;118.99
66312;HTU21D;53114;51.138;6.008;2022-07-21T04:57:49;20.42;118.99
66312;HTU21D;53114;51.138;6.008;2022-07-21T05:00:22;20.47;118.99
66312;HTU21D;53114;51.138;6.008;2022-07-21T05:02:50;20.50;118.99
66312;HTU21D;53114;51.138;6.008;2022-07-21T05:05:17;20.54;118.99
66312;HTU21D;53114;51.138;6.008;2022-07-21T05:07:43;20.55;118.99
66312;HTU21D;53114;51.138;6.008;2022-07-21T05:10:12;20.57;118.99
66312;HTU21D;53114;51.138;6.008;2022-07-21T05:12:39;20.57;118.99
66312;HTU21D;53114;51.138;6.008;2022-07-21T05:15:06;20.58;118.99
66312;HTU21D;53114;51.138;6.008;2022-07-21T05:17:32;20.57;118.99
66312;HTU21D;53114;51.138;6.008;2022-07-21T05:19:59;20.56;118.99
66312;HTU21D;53114;51.138;6.008;2022-07-21T05:22:25;20.58;118.99
66312;HTU21D;53114;51.138;6.008;2022-07-21T05:24:51;20.61;118.99
66312;HTU21D;53114;51.138;6.008;2022-07-21T05:27:17;20.61;118.99
66312;HTU21D;53114;51.138;6.008;2022-07-21T05:29:43;20.58;118.99
66312;HTU21D;53114;51.138;6.008;2022-07-21T05:32:09;20.63;118.99
66312;HTU21D;53114;51.138;6.008;2022-07-21T05:34:34;20.68;118.99
66312;HTU21D;53114;51.138;6.008;2022-07-21T05:37:02;20.73;118.99
66312;HTU21D;53114;51.138;6.008;2022-07-21T05:39:28;20.78;118.99
66312;HTU21D;53114;51.138;6.008;2022-07-21T05:41:54;20.85;118.99
66312;HTU21D;53114;51.138;6.008;2022-07-21T05:44:20;20.88;118.99
66312;HTU21D;53114;51.138;6.008;2022-07-21T05:46:46;20.94;118.99
66312;HTU21D;53114;51.138;6.008;2022-07-21T05:49:12;21.05;118.99
66312;HTU21D;53114;51.138;6.008;2022-07-21T05:51:38;21.14;118.50
66312;HTU21D;53114;51.138;6.008;2022-07-21T05:54:04;21.24;117.99
66312;HTU21D;53114;51.138;6.008;2022-07-21T05:56:30;21.31;117.22
66312;HTU21D;53114;51.138;6.008;2022-07-21T05:58:56;21.33;117.06
66312;HTU21D;53114;51.138;6.008;2022-07-21T06:01:22;21.33;116.64
66312;HTU21D;53114;51.138;6.008;2022-07-21T06:03:49;21.37;116.74
66312;HTU21D;53114;51.138;6.008;2022-07-21T06:06:17;21.40;116.47
66312;HTU21D;53114;51.138;6.008;2022-07-21T06:08:46;21.43;116.11
66312;HTU21D;53114;51.138;6.008;2022-07-21T06:11:15;21.44;115.86
66312;HTU21D;53114;51.138;6.008;2022-07-21T06:13:42;21.49;116.02
66312;HTU21D;53114;51.138;6.008;2022-07-21T06:16:09;21.59;114.96
66312;HTU21D;53114;51.138;6.008;2022-07-21T06:18:35;21.75;112.98
66312;HTU21D;53114;51.138;6.008;2022-07-21T06:21:02;21.76;111.75
66312;HTU21D;53114;51.138;6.008;2022-07-21T06:23:28;21.80;111.66
66312;HTU21D;53114;51.138;6.008;2022-07-21T06:25:54;21.84;110.91
66312;HTU21D;53114;51.138;6.008;2022-07-21T06:28:21;21.84;111.10
66312;HTU21D;53114;51.138;6.008;2022-07-21T06:30:47;21.82;110.71
66312;HTU21D;53114;51.138;6.008;2022-07-21T06:33:13;21.83;109.93
66312;HTU21D;53114;51.138;6.008;2022-07-21T06:35:40;21.79;109.74
66312;HTU21D;53114;51.138;6.008;2022-07-21T06:38:06;21.75;109.85
66312;HTU21D;53114;51.138;6.008;2022-07-21T06:40:32;21.80;111.05
66312;HTU21D;53114;51.138;6.008;2022-07-21T06:42:58;22.07;110.36
66312;HTU21D;53114;51.138;6.008;2022-07-21T06:45:24;22.35;109.07
66312;HTU21D;53114;51.138;6.008;2022-07-21T06:48:04;22.69;107.06
66312;HTU21D;53114;51.138;6.008;2022-07-21T06:50:31;22.97;104.87
66312;HTU21D;53114;51.138;6.008;2022-07-21T06:52:57;23.10;103.45
66312;HTU21D;53114;51.138;6.008;2022-07-21T06:55:23;23.11;103.15
66312;HTU21D;53114;51.138;6.008;2022-07-21T06:57:49;22.94;102.94
66312;HTU21D;53114;51.138;6.008;2022-07-21T07:00:15;22.71;103.91
66312;HTU21D;53114;51.138;6.008;2022-07-21T07:02:41;22.55;105.01
66312;HTU21D;53114;51.138;6.008;2022-07-21T07:05:07;22.36;105.15
66312;HTU21D;53114;51.138;6.008;2022-07-21T07:07:33;22.17;105.92
66312;HTU21D;53114;51.138;6.008;2022-07-21T07:09:59;22.03;106.66
66312;HTU21D;53114;51.138;6.008;2022-07-21T07:12:25;21.99;108.01
66312;HTU21D;53114;51.138;6.008;2022-07-21T07:14:51;22.09;107.69
66312;HTU21D;53114;51.138;6.008;2022-07-21T07:17:18;22.17;106.82
66312;HTU21D;53114;51.138;6.008;2022-07-21T07:19:45;22.24;106.85
66312;HTU21D;53114;51.138;6.008;2022-07-21T07:22:12;22.31;105.82
66312;HTU21D;53114;51.138;6.008;2022-07-21T07:24:38;22.31;105.41
66312;HTU21D;53114;51.138;6.008;2022-07-21T07:27:04;22.29;105.30
66312;HTU21D;53114;51.138;6.008;2022-07-21T07:29:30;22.23;104.58
66312;HTU21D;53114;51.138;6.008;2022-07-21T07:31:57;22.19;105.78
66312;HTU21D;53114;51.138;6.008;2022-07-21T07:34:23;22.24;105.48
66312;HTU21D;53114;51.138;6.008;2022-07-21T07:36:50;22.33;104.77
66312;HTU21D;53114;51.138;6.008;2022-07-21T07:39:16;22.44;103.99
66312;HTU21D;53114;51.138;6.008;2022-07-21T07:41:43;22.53;102.30
66312;HTU21D;53114;51.138;6.008;2022-07-21T07:44:09;22.56;102.03
66312;HTU21D;53114;51.138;6.008;2022-07-21T07:46:35;22.57;100.87
66312;HTU21D;53114;51.138;6.008;2022-07-21T07:49:02;22.56;101.50
66312;HTU21D;53114;51.138;6.008;2022-07-21T07:51:28;22.63;100.51
66312;HTU21D;53114;51.138;6.008;2022-07-21T07:53:54;22.63;100.13
66312;HTU21D;53114;51.138;6.008;2022-07-21T07:56:20;22.69;99.06
66312;HTU21D;53114;51.138;6.008;2022-07-21T07:58:46;22.87;98.56
66312;HTU21D;53114;51.138;6.008;2022-07-21T08:01:12;23.23;96.73
66312;HTU21D;53114;51.138;6.008;2022-07-21T08:03:38;23.46;94.67
66312;HTU21D;53114;51.138;6.008;2022-07-21T08:06:04;23.49;93.14
66312;HTU21D;53114;51.138;6.008;2022-07-21T08:08:32;23.34;92.92
66312;HTU21D;53114;51.138;6.008;2022-07-21T08:10:59;23.13;94.14
66312;HTU21D;53114;51.138;6.008;2022-07-21T08:13:25;22.94;95.18
66312;HTU21D;53114;51.138;6.008;2022-07-21T08:15:51;22.78;96.66
66312;HTU21D;53114;51.138;6.008;2022-07-21T08:18:19;22.62;97.32
66312;HTU21D;53114;51.138;6.008;2022-07-21T08:20:46;22.52;98.65
66312;HTU21D;53114;51.138;6.008;2022-07-21T08:23:13;22.61;99.35
66312;HTU21D;53114;51.138;6.008;2022-07-21T08:25:40;22.81;98.64
66312;HTU21D;53114;51.138;6.008;2022-07-21T08:28:08;22.98;98.31
66312;HTU21D;53114;51.138;6.008;2022-07-21T08:30:35;23.13;96.89
66312;HTU21D;53114;51.138;6.008;2022-07-21T08:33:01;23.07;97.13
66312;HTU21D;53114;51.138;6.008;2022-07-21T08:35:28;22.90;97.69
66312;HTU21D;53114;51.138;6.008;2022-07-21T08:37:57;22.72;98.84
66312;HTU21D;53114;51.138;6.008;2022-07-21T08:40:26;22.55;99.76
66312;HTU21D;53114;51.138;6.008;2022-07-21T08:42:53;22.41;100.98
66312;HTU21D;53114;51.138;6.008;2022-07-21T08:45:22;22.32;102.12
66312;HTU21D;53114;51.138;6.008;2022-07-21T08:47:53;22.20;102.47
66312;HTU21D;53114;51.138;6.008;2022-07-21T08:50:23;22.09;103.46
66312;HTU21D;53114;51.138;6.008;2022-07-21T08:52:50;22.04;103.93
66312;HTU21D;53114;51.138;6.008;2022-07-21T08:55:16;22.03;105.28
66312;HTU21D;53114;51.138;6.008;2022-07-21T08:57:42;21.96;106.49
66312;HTU21D;53114;51.138;6.008;2022-07-21T09:00:09;21.85;107.95
66312;HTU21D;53114;51.138;6.008;2022-07-21T09:02:37;21.80;109.99
66312;HTU21D;53114;51.138;6.008;2022-07-21T09:05:06;21.81;111.23
66312;HTU21D;53114;51.138;6.008;2022-07-21T09:07:50;21.90;112.02
66312;HTU21D;53114;51.138;6.008;2022-07-21T09:10:22;21.90;112.79
66312;HTU21D;53114;51.138;6.008;2022-07-21T09:12:54;21.90;112.32
66312;HTU21D;53114;51.138;6.008;2022-07-21T09:15:23;21.79;113.65
66312;HTU21D;53114;51.138;6.008;2022-07-21T09:18:14;21.77;114.83
66312;HTU21D;53114;51.138;6.008;2022-07-21T09:20:49;21.74;115.54
66312;HTU21D;53114;51.138;6.008;2022-07-21T09:23:18;21.64;115.36
66312;HTU21D;53114;51.138;6.008;2022-07-21T09:25:50;21.62;116.46
66312;HTU21D;53114;51.138;6.008;2022-07-21T09:28:24;21.64;117.16
66312;HTU21D;53114;51.138;6.008;2022-07-21T09:31:04;21.65;117.44
66312;HTU21D;53114;51.138;6.008;2022-07-21T09:33:38;21.66;118.05
66312;HTU21D;53114;51.138;6.008;2022-07-21T09:36:06;21.64;118.70
66312;HTU21D;53114;51.138;6.008;2022-07-21T09:38:36;21.54;118.99
66312;HTU21D;53114;51.138;6.008;2022-07-21T09:41:17;21.53;118.99
66312;HTU21D;53114;51.138;6.008;2022-07-21T09:43:49;21.49;118.99
66312;HTU21D;53114;51.138;6.008;2022-07-21T09:46:26;21.32;118.99
66312;HTU21D;53114;51.138;6.008;2022-07-21T09:48:59;21.20;118.99
66312;HTU21D;53114;51.138;6.008;2022-07-21T09:51:33;21.16;118.99
66312;HTU21D;53114;51.138;6.008;2022-07-21T09:54:02;21.14;118.99
66312;HTU21D;53114;51.138;6.008;2022-07-21T09:56:34;21.11;118.99
66312;HTU21D;53114;51.138;6.008;2022-07-21T09:59:02;21.06;118.99
66312;HTU21D;53114;51.138;6.008;2022-07-21T10:01:30;21.03;118.99
66312;HTU21D;53114;51.138;6.008;2022-07-21T10:03:59;21.10;118.99
66312;HTU21D;53114;51.138;6.008;2022-07-21T10:06:31;21.14;118.99
66312;HTU21D;53114;51.138;6.008;2022-07-21T10:08:59;21.14;118.99
66312;HTU21D;53114;51.138;6.008;2022-07-21T10:11:26;21.14;118.99
66312;HTU21D;53114;51.138;6.008;2022-07-21T10:13:53;21.13;118.99
66312;HTU21D;53114;51.138;6.008;2022-07-21T10:16:20;21.07;118.99
66312;HTU21D;53114;51.138;6.008;2022-07-21T10:22:18;20.87;118.99
66312;HTU21D;53114;51.138;6.008;2022-07-21T10:24:49;20.83;118.99
66312;HTU21D;53114;51.138;6.008;2022-07-21T10:27:16;20.76;118.99
66312;HTU21D;53114;51.138;6.008;2022-07-21T10:32:19;20.68;118.99
66312;HTU21D;53114;51.138;6.008;2022-07-21T10:34:46;20.61;118.99
66312;HTU21D;53114;51.138;6.008;2022-07-21T10:45:35;20.42;118.99
66312;HTU21D;53114;51.138;6.008;2022-07-21T10:48:04;20.33;118.99
66312;HTU21D;53114;51.138;6.008;2022-07-21T10:53:02;20.24;118.99
66312;HTU21D;53114;51.138;6.008;2022-07-21T10:55:35;20.21;118.99
66312;HTU21D;53114;51.138;6.008;2022-07-21T10:58:10;20.14;118.99
66312;HTU21D;53114;51.138;6.008;2022-07-21T11:00:39;20.07;118.99
66312;HTU21D;53114;51.138;6.008;2022-07-21T11:08:45;19.85;118.99
66312;HTU21D;53114;51.138;6.008;2022-07-21T11:11:16;19.86;118.99
66312;HTU21D;53114;51.138;6.008;2022-07-21T11:21:56;19.66;118.99
66312;HTU21D;53114;51.138;6.008;2022-07-21T11:24:24;19.58;118.99
66312;HTU21D;53114;51.138;6.008;2022-07-21T11:27:00;19.51;118.99
66312;HTU21D;53114;51.138;6.008;2022-07-21T11:29:27;19.44;118.99
66312;HTU21D;53114;51.138;6.008;2022-07-21T11:31:53;19.43;118.99
66312;HTU21D;53114;51.138;6.008;2022-07-21T11:34:19;19.43;118.99
66312;HTU21D;53114;51.138;6.008;2022-07-21T11:36:46;19.39;118.99
66312;HTU21D;53114;51.138;6.008;2022-07-21T11:39:14;19.39;118.99
66312;HTU21D;53114;51.138;6.008;2022-07-21T11:41:42;19.43;118.99
66312;HTU21D;53114;51.138;6.008;2022-07-21T11:44:09;19.41;118.99
66312;HTU21D;53114;51.138;6.008;2022-07-21T11:46:47;19.38;118.99
66312;HTU21D;53114;51.138;6.008;2022-07-21T11:49:13;19.37;118.99
66312;HTU21D;53114;51.138;6.008;2022-07-21T11:51:55;19.42;118.99
66312;HTU21D;53114;51.138;6.008;2022-07-21T11:54:36;19.50;118.99
66312;HTU21D;53114;51.138;6.008;2022-07-21T11:57:05;19.57;118.99
66312;HTU21D;53114;51.138;6.008;2022-07-21T11:59:32;19.59;118.99
66312;HTU21D;53114;51.138;6.008;2022-07-21T12:02:04;19.67;118.99
66312;HTU21D;53114;51.138;6.008;2022-07-21T12:04:37;19.84;118.99
66312;HTU21D;53114;51.138;6.008;2022-07-21T12:07:13;19.91;118.99
66312;HTU21D;53114;51.138;6.008;2022-07-21T12:09:42;20.01;118.99
66312;HTU21D;53114;51.138;6.008;2022-07-21T12:12:08;20.11;118.99
66312;HTU21D;53114;51.138;6.008;2022-07-21T12:14:49;20.17;118.99
66312;HTU21D;53114;51.138;6.008;2022-07-21T12:17:31;20.21;118.99
66312;HTU21D;53114;51.138;6.008;2022-07-21T12:19:58;20.29;118.99
66312;HTU21D;53114;51.138;6.008;2022-07-21T12:22:42;20.18;118.99
66312;HTU21D;53114;51.138;6.008;2022-07-21T12:25:12;19.96;118.99
66312;HTU21D;53114;51.138;6.008;2022-07-21T12:27:41;19.77;118.99
66312;HTU21D;53114;51.138;6.008;2022-07-21T12:30:09;19.70;118.99
66312;HTU21D;53114;51.138;6.008;2022-07-21T12:32:43;19.74;118.99
66312;HTU21D;53114;51.138;6.008;2022-07-21T12:35:37;19.80;118.99
66312;HTU21D;53114;51.138;6.008;2022-07-21T12:38:12;19.83;118.99
66312;HTU21D;53114;51.138;6.008;2022-07-21T12:40:44;19.82;118.99
66312;HTU21D;53114;51.138;6.008;2022-07-21T12:43:16;19.83;118.99
66312;HTU21D;53114;51.138;6.008;2022-07-21T12:48:32;19.80;118.99
66312;HTU21D;53114;51.138;6.008;2022-07-21T12:51:09;19.73;118.99
66312;HTU21D;53114;51.138;6.008;2022-07-21T12:53:48;19.72;118.99
66312;HTU21D;53114;51.138;6.008;2022-07-21T12:56:27;19.73;118.99
66312;HTU21D;53114;51.138;6.008;2022-07-21T12:58:55;19.79;118.99
66312;HTU21D;53114;51.138;6.008;2022-07-21T13:01:23;19.84;118.99
66312;HTU21D;53114;51.138;6.008;2022-07-21T13:03:49;19.92;118.99
66312;HTU21D;53114;51.138;6.008;2022-07-21T13:06:16;19.92;118.99
66312;HTU21D;53114;51.138;6.008;2022-07-21T13:08:46;19.95;118.99
66312;HTU21D;53114;51.138;6.008;2022-07-21T13:11:15;19.91;118.99
66312;HTU21D;53114;51.138;6.008;2022-07-21T13:13:45;19.88;118.99
66312;HTU21D;53114;51.138;6.008;2022-07-21T13:16:11;19.87;118.99
66312;HTU21D;53114;51.138;6.008;2022-07-21T13:18:37;19.87;118.99
66312;HTU21D;53114;51.138;6.008;2022-07-21T13:21:05;19.86;118.99
66312;HTU21D;53114;51.138;6.008;2022-07-21T13:23:31;19.87;118.99
66312;HTU21D;53114;51.138;6.008;2022-07-21T13:25:57;19.91;118.99
66312;HTU21D;53114;51.138;6.008;2022-07-21T13:28:23;19.95;118.99
66312;HTU21D;53114;51.138;6.008;2022-07-21T13:30:49;20.00;118.99
66312;HTU21D;53114;51.138;6.008;2022-07-21T13:33:16;20.05;118.99
66312;HTU21D;53114;51.138;6.008;2022-07-21T13:35:42;20.07;118.99
66312;HTU21D;53114;51.138;6.008;2022-07-21T13:38:08;19.95;118.99
66312;HTU21D;53114;51.138;6.008;2022-07-21T13:40:35;19.87;118.99
66312;HTU21D;53114;51.138;6.008;2022-07-21T13:43:03;19.85;118.99
66312;HTU21D;53114;51.138;6.008;2022-07-21T13:45:29;19.87;118.99
66312;HTU21D;53114;51.138;6.008;2022-07-21T13:47:55;19.91;118.99
66312;HTU21D;53114;51.138;6.008;2022-07-21T13:50:21;19.95;118.99
66312;HTU21D;53114;51.138;6.008;2022-07-21T13:52:47;19.99;118.99
66312;HTU21D;53114;51.138;6.008;2022-07-21T13:55:13;19.95;118.99
66312;HTU21D;53114;51.138;6.008;2022-07-21T13:57:39;19.95;118.99
66312;HTU21D;53114;51.138;6.008;2022-07-21T14:00:08;19.96;118.99
66312;HTU21D;53114;51.138;6.008;2022-07-21T14:02:35;20.04;118.99
66312;HTU21D;53114;51.138;6.008;2022-07-21T14:05:03;20.17;118.99
66312;HTU21D;53114;51.138;6.008;2022-07-21T14:07:30;20.21;118.99
66312;HTU21D;53114;51.138;6.008;2022-07-21T14:09:56;20.21;118.99
66312;HTU21D;53114;51.138;6.008;2022-07-21T14:12:22;20.22;118.99
66312;HTU21D;53114;51.138;6.008;2022-07-21T14:14:48;20.20;118.99
66312;HTU21D;53114;51.138;6.008;2022-07-21T14:17:15;20.17;118.99
66312;HTU21D;53114;51.138;6.008;2022-07-21T14:19:43;20.07;118.99
66312;HTU21D;53114;51.138;6.008;2022-07-21T14:22:15;20.05;118.99
66312;HTU21D;53114;51.138;6.008;2022-07-21T14:24:43;20.02;118.99
66312;HTU21D;53114;51.138;6.008;2022-07-21T14:27:28;20.03;118.99
66312;HTU21D;53114;51.138;6.008;2022-07-21T14:29:55;20.02;118.99
66312;HTU21D;53114;51.138;6.008;2022-07-21T14:32:21;20.00;118.99
66312;HTU21D;53114;51.138;6.008;2022-07-21T14:34:53;20.04;118.99
66312;HTU21D;53114;51.138;6.008;2022-07-21T14:37:19;20.06;118.99
66312;HTU21D;53114;51.138;6.008;2022-07-21T14:39:46;20.10;118.99
66312;HTU21D;53114;51.138;6.008;2022-07-21T14:42:12;20.03;118.99
66312;HTU21D;53114;51.138;6.008;2022-07-21T14:44:39;20.07;118.99
66312;HTU21D;53114;51.138;6.008;2022-07-21T14:47:06;20.01;118.99
66312;HTU21D;53114;51.138;6.008;2022-07-21T14:49:33;20.01;118.99
66312;HTU21D;53114;51.138;6.008;2022-07-21T14:52:00;19.95;118.99
66312;HTU21D;53114;51.138;6.008;2022-07-21T14:54:26;19.89;118.99
66312;HTU21D;53114;51.138;6.008;2022-07-21T14:56:52;19.83;118.99
66312;HTU21D;53114;51.138;6.008;2022-07-21T14:59:17;19.83;118.99
66312;HTU21D;53114;51.138;6.008;2022-07-21T15:01:44;19.85;118.99
66312;HTU21D;53114;51.138;6.008;2022-07-21T15:04:10;19.85;118.99
66312;HTU21D;53114;51.138;6.008;2022-07-21T15:06:36;19.85;118.99
66312;HTU21D;53114;51.138;6.008;2022-07-21T15:09:02;19.90;118.99
66312;HTU21D;53114;51.138;6.008;2022-07-21T15:11:28;19.95;118.99
66312;HTU21D;53114;51.138;6.008;2022-07-21T15:13:53;20.04;118.99
66312;HTU21D;53114;51.138;6.008;2022-07-21T15:16:19;20.13;118.99
66312;HTU21D;53114;51.138;6.008;2022-07-21T15:18:46;20.16;118.99
66312;HTU21D;53114;51.138;6.008;2022-07-21T15:21:12;20.22;118.99
66312;HTU21D;53114;51.138;6.008;2022-07-21T15:23:38;20.25;118.99
66312;HTU21D;53114;51.138;6.008;2022-07-21T15:26:04;20.27;118.99
66312;HTU21D;53114;51.138;6.008;2022-07-21T15:28:30;20.33;118.99
66312;HTU21D;53114;51.138;6.008;2022-07-21T15:30:56;20.40;118.99
66312;HTU21D;53114;51.138;6.008;2022-07-21T15:33:22;20.41;118.99
66312;HTU21D;53114;51.138;6.008;2022-07-21T15:35:48;20.27;118.99
66312;HTU21D;53114;51.138;6.008;2022-07-21T15:38:17;20.20;118.99
66312;HTU21D;53114;51.138;6.008;2022-07-21T15:40:43;20.16;118.99